Time;durP1;ratioP1;P1;durP2;ratioP2;P2;SDS_P1;SDS_P2;PMS_P1;PMS_P2;Temp;Humidity;BMP_temperature;BMP_pressure;BME280_temperature;BME280_humidity;BME280_pressure;Samples;Min_cycle;Max_cycle;Signal;HPM_P1;HPM_P2
2023/02/09 00:01:59;;;;;;;25.13;17.30;;;0.00;99.90;;;;;;5093939;28;20238;-35
2023/02/09 00:04:25;;;;;;;40.47;25.90;;;-0.10;99.90;;;;;;5096168;28;20207;-36
2023/02/09 00:06:50;;;;;;;50.00;29.40;;;-0.10;99.90;;;;;;5095031;28;20431;-36
2023/02/09 00:09:16;;;;;;;41.40;27.23;;;-0.10;99.90;;;;;;5096687;28;20268;-36
2023/02/09 00:14:26;;;;;;;38.37;24.80;;;-0.10;99.90;;;;;;5095700;28;20191;-36
2023/02/09 00:16:52;;;;;;;43.10;24.20;;;-0.10;99.90;;;;;;5096676;28;20863;-36
2023/02/09 00:19:19;;;;;;;37.60;25.30;;;-0.20;99.90;;;;;;5078057;28;20430;-36
2023/02/09 00:21:45;;;;;;;34.90;22.33;;;-0.30;99.90;;;;;;5097282;28;20418;-36
2023/02/09 00:24:11;;;;;;;31.53;20.70;;;-0.30;99.90;;;;;;5097781;28;20902;-36
2023/02/09 00:26:38;;;;;;;30.53;18.97;;;-0.30;99.90;;;;;;5096771;28;20411;-36
2023/02/09 00:29:04;;;;;;;26.70;16.73;;;-0.40;99.90;;;;;;5097661;28;20418;-36
2023/02/09 00:31:30;;;;;;;30.03;20.03;;;-0.40;99.90;;;;;;5096884;28;20414;-35
2023/02/09 00:33:56;;;;;;;25.03;17.30;;;-0.40;99.90;;;;;;5097346;28;20454;-35
2023/02/09 00:36:22;;;;;;;26.90;18.30;;;-0.50;99.90;;;;;;5096736;28;20682;-36
2023/02/09 00:38:48;;;;;;;23.20;17.27;;;-0.50;99.90;;;;;;5096634;28;20180;-36
2023/02/09 00:41:14;;;;;;;27.43;17.77;;;-0.50;99.90;;;;;;5097771;28;20262;-35
2023/02/09 00:43:40;;;;;;;26.83;18.03;;;-0.60;99.90;;;;;;5096454;28;20574;-34
2023/02/09 00:46:06;;;;;;;24.73;17.53;;;-0.60;99.90;;;;;;5097430;28;20415;-36
2023/02/09 00:48:31;;;;;;;26.30;18.03;;;-0.60;99.90;;;;;;5100514;28;20523;-35
2023/02/09 00:50:57;;;;;;;23.57;16.93;;;-0.60;99.90;;;;;;5096225;28;20179;-35
2023/02/09 00:53:23;;;;;;;26.87;19.67;;;-0.70;99.90;;;;;;5097497;28;20212;-36
2023/02/09 00:55:49;;;;;;;24.03;16.27;;;-0.70;99.90;;;;;;5096754;28;20297;-35
2023/02/09 00:58:16;;;;;;;25.43;17.80;;;-0.70;99.90;;;;;;5096865;28;20426;-36
2023/02/09 01:00:41;;;;;;;26.10;18.03;;;-0.70;99.90;;;;;;5095187;28;20419;-36
2023/02/09 01:03:08;;;;;;;25.57;18.37;;;-0.70;99.90;;;;;;5095949;28;20599;-36
2023/02/09 01:05:38;;;;;;;26.80;18.57;;;-0.80;99.90;;;;;;5096989;28;20253;-38
2023/02/09 01:08:03;;;;;;;21.37;16.93;;;-0.80;99.90;;;;;;5097102;28;20808;-35
2023/02/09 01:10:29;;;;;;;25.70;18.10;;;-0.90;99.90;;;;;;5098094;28;20407;-35
2023/02/09 01:12:55;;;;;;;23.90;18.50;;;-0.90;99.90;;;;;;5096141;28;20180;-35
2023/02/09 01:15:20;;;;;;;23.47;17.40;;;-0.90;99.90;;;;;;5097323;28;20643;-35
2023/02/09 01:17:46;;;;;;;26.80;18.90;;;-1.00;99.90;;;;;;5097166;28;20188;-35
2023/02/09 01:20:12;;;;;;;23.83;17.00;;;-1.00;99.90;;;;;;5097264;28;20573;-35
2023/02/09 01:22:38;;;;;;;23.40;17.80;;;-1.00;99.90;;;;;;5096792;28;20550;-36
2023/02/09 01:25:05;;;;;;;23.20;17.90;;;-1.00;99.90;;;;;;5095915;28;20509;-36
2023/02/09 01:27:31;;;;;;;28.27;19.43;;;-1.00;99.90;;;;;;5097694;28;20237;-36
2023/02/09 01:29:57;;;;;;;25.67;18.10;;;-1.00;99.90;;;;;;5097365;28;20427;-35
2023/02/09 01:32:22;;;;;;;26.90;18.60;;;-1.00;1.00;;;;;;5097075;28;20472;-39
2023/02/09 01:34:53;;;;;;;27.40;19.33;;;-1.00;1.00;;;;;;5096940;28;20486;-36
2023/02/09 01:37:19;;;;;;;25.90;18.03;;;-1.00;1.00;;;;;;5097151;28;20176;-37
2023/02/09 01:39:45;;;;;;;24.80;18.07;;;-1.00;1.00;;;;;;5096777;28;20426;-37
2023/02/09 01:42:15;;;;;;;27.70;17.63;;;-0.90;1.00;;;;;;5096522;28;20479;-37
2023/02/09 01:44:40;;;;;;;24.27;17.73;;;-1.00;1.00;;;;;;5097006;28;20208;-36
2023/02/09 01:47:13;;;;;;;27.47;19.40;;;-1.00;1.00;;;;;;5097516;28;20429;-36
2023/02/09 01:49:38;;;;;;;26.27;18.13;;;-1.00;1.00;;;;;;5098603;28;20566;-37
2023/02/09 01:52:24;;;;;;;25.03;18.00;;;-0.90;1.00;;;;;;5103577;28;20458;-37
2023/02/09 01:55:01;;;;;;;29.40;19.47;;;-0.90;1.00;;;;;;5086571;28;20234;-37
2023/02/09 01:57:31;;;;;;;24.40;17.37;;;-0.90;1.00;;;;;;5102832;28;20426;-36
2023/02/09 02:00:06;;;;;;;26.67;19.80;;;-1.00;1.00;;;;;;5101904;28;20422;-37
2023/02/09 02:02:32;;;;;;;25.20;18.27;;;-1.00;1.00;;;;;;5101924;28;20508;-36
2023/02/09 02:04:58;;;;;;;29.57;19.47;;;-1.00;1.00;;;;;;5101928;28;20655;-37
2023/02/09 02:07:29;;;;;;;24.47;17.57;;;-1.00;1.00;;;;;;5102885;28;20190;-37
2023/02/09 02:09:55;;;;;;;23.30;18.50;;;-1.10;1.00;;;;;;5103525;28;20850;-36
2023/02/09 02:12:22;;;;;;;25.40;17.87;;;-1.00;1.00;;;;;;5103133;28;20448;-36
2023/02/09 02:14:48;;;;;;;27.83;19.00;;;-1.10;1.00;;;;;;5103500;28;20426;-37
2023/02/09 02:17:25;;;;;;;26.80;18.50;;;-1.10;1.00;;;;;;5102782;28;20701;-36
2023/02/09 02:20:00;;;;;;;26.50;18.73;;;-1.10;1.00;;;;;;5101652;28;20763;-36
2023/02/09 02:22:50;;;;;;;24.83;17.77;;;-1.20;1.00;;;;;;5103557;28;20471;-36
2023/02/09 02:25:42;;;;;;;28.10;19.07;;;-1.30;1.00;;;;;;5102882;28;20876;-36
2023/02/09 02:29:02;;;;;;;26.47;18.37;;;-1.30;1.00;;;;;;5074831;28;20709;-37
2023/02/09 02:31:48;;;;;;;32.07;20.07;;;-1.30;1.00;;;;;;5042423;28;20535;-37
2023/02/09 02:34:32;;;;;;;27.33;17.70;;;-1.30;1.00;;;;;;5099499;28;21047;-37
2023/02/09 02:37:23;;;;;;;29.43;19.03;;;-1.30;1.00;;;;;;5103717;28;20425;-37
2023/02/09 02:40:02;;;;;;;27.00;19.03;;;-1.30;1.00;;;;;;5103340;28;20843;-37
2023/02/09 02:42:51;;;;;;;29.93;20.00;;;-1.40;1.00;;;;;;5103328;28;20417;-37
2023/02/09 02:45:38;;;;;;;27.53;18.93;;;-1.40;1.00;;;;;;5102513;28;20472;-37
2023/02/09 02:48:25;;;;;;;27.50;18.77;;;-1.40;1.00;;;;;;5103557;28;20420;-37
2023/02/09 02:51:06;;;;;;;27.97;18.50;;;-1.40;1.00;;;;;;5103935;28;20411;-37
2023/02/09 02:53:34;;;;;;;29.43;19.07;;;-1.40;1.00;;;;;;5102802;28;20426;-37
2023/02/09 02:56:31;;;;;;;28.50;19.50;;;-1.50;1.00;;;;;;5103554;28;20814;-36
2023/02/09 02:58:58;;;;;;;29.53;18.83;;;-1.50;1.00;;;;;;5103244;28;20496;-36
2023/02/09 03:01:27;;;;;;;24.93;18.90;;;-1.50;1.00;;;;;;5100167;28;20415;-37
2023/02/09 03:03:53;;;;;;;25.70;19.37;;;-1.50;1.00;;;;;;5099387;28;20461;-36
2023/02/09 03:06:19;;;;;;;27.33;19.70;;;-1.50;1.00;;;;;;5099314;28;20832;-37
2023/02/09 03:08:50;;;;;;;31.53;20.60;;;-1.50;1.00;;;;;;5100811;28;20457;-37
2023/02/09 03:11:17;;;;;;;27.60;19.30;;;-1.50;1.00;;;;;;5099833;28;20237;-37
2023/02/09 03:14:16;;;;;;;26.53;19.90;;;-1.50;1.00;;;;;;5099524;28;20530;-37
2023/02/09 03:16:46;;;;;;;33.73;21.10;;;-1.50;1.00;;;;;;5099874;28;20443;-37
2023/02/09 03:19:30;;;;;;;29.83;20.47;;;-1.50;1.00;;;;;;5099303;28;20406;-37
2023/02/09 03:22:01;;;;;;;27.30;19.33;;;-1.50;1.00;;;;;;5099880;28;20418;-36
2023/02/09 03:24:45;;;;;;;29.13;19.50;;;-1.60;1.00;;;;;;5099132;28;20486;-37
2023/02/09 03:27:27;;;;;;;28.27;20.20;;;-1.60;1.00;;;;;;5099960;28;20513;-37
2023/02/09 03:29:56;;;;;;;26.07;18.60;;;-1.60;1.00;;;;;;5099082;28;20479;-37
2023/02/09 03:32:21;;;;;;;28.73;19.80;;;-1.60;1.00;;;;;;5098629;28;20492;-37
2023/02/09 03:34:48;;;;;;;29.93;20.37;;;-1.60;1.00;;;;;;5099067;28;20430;-37
2023/02/09 03:37:13;;;;;;;26.27;19.57;;;-1.70;1.00;;;;;;5100313;28;20429;-36
2023/02/09 03:39:39;;;;;;;26.93;19.90;;;-1.70;1.00;;;;;;5098736;28;20422;-37
2023/02/09 03:42:05;;;;;;;31.10;20.40;;;-1.70;1.00;;;;;;5099204;28;20474;-37
2023/02/09 03:44:31;;;;;;;29.20;20.90;;;-1.70;1.00;;;;;;5099936;28;20208;-35
2023/02/09 03:46:59;;;;;;;32.73;22.13;;;-1.80;1.00;;;;;;5100172;28;20758;-36
2023/02/09 03:49:27;;;;;;;33.80;20.40;;;-1.80;1.00;;;;;;5098018;28;20329;-36
2023/02/09 03:51:53;;;;;;;26.63;19.47;;;-1.80;1.00;;;;;;5098317;28;20513;-37
2023/02/09 03:54:19;;;;;;;28.47;20.30;;;-1.80;1.00;;;;;;5099362;28;20509;-35
2023/02/09 03:56:45;;;;;;;26.00;20.10;;;-1.90;1.00;;;;;;5100089;28;20180;-36
2023/02/09 03:59:10;;;;;;;26.87;18.93;;;-1.90;1.00;;;;;;5100355;28;20423;-37
2023/02/09 04:01:36;;;;;;;29.03;20.37;;;-1.90;1.00;;;;;;5098426;28;20177;-38
2023/02/09 04:04:03;;;;;;;31.17;21.00;;;-1.90;1.00;;;;;;5098717;28;20200;-36
2023/02/09 04:06:30;;;;;;;30.07;21.43;;;-2.00;1.00;;;;;;5098916;28;20254;-36
2023/02/09 04:08:57;;;;;;;27.50;19.90;;;-1.90;1.00;;;;;;5098663;28;20505;-36
2023/02/09 04:11:23;;;;;;;28.63;21.10;;;-1.90;1.00;;;;;;5096907;28;20480;-36
2023/02/09 04:13:49;;;;;;;33.83;20.00;;;-1.90;1.00;;;;;;5098262;28;20839;-37
2023/02/09 04:16:16;;;;;;;28.47;20.67;;;-1.90;1.00;;;;;;5099059;28;20452;-36
2023/02/09 04:18:43;;;;;;;28.20;20.30;;;-1.90;1.00;;;;;;5098723;28;20222;-37
2023/02/09 04:21:09;;;;;;;30.73;20.43;;;-2.00;1.00;;;;;;5099662;28;20418;-37
2023/02/09 04:23:34;;;;;;;30.30;21.97;;;-2.00;1.00;;;;;;5099294;28;20448;-36
2023/02/09 04:26:00;;;;;;;32.47;22.33;;;-2.00;1.00;;;;;;5099097;28;20192;-37
2023/02/09 04:28:25;;;;;;;26.80;20.40;;;-2.10;1.00;;;;;;5098608;28;20176;-36
2023/02/09 04:30:53;;;;;;;33.97;21.87;;;-2.10;1.00;;;;;;5098888;28;20172;-37
2023/02/09 04:33:19;;;;;;;30.27;21.70;;;-2.10;1.00;;;;;;5097052;28;20176;-36
2023/02/09 04:35:45;;;;;;;31.63;20.83;;;-2.20;1.00;;;;;;5098837;28;20463;-37
2023/02/09 04:38:11;;;;;;;30.97;20.83;;;-2.20;1.00;;;;;;5098242;28;20525;-37
2023/02/09 04:40:36;;;;;;;29.70;20.97;;;-2.20;1.00;;;;;;5098021;28;20192;-36
2023/02/09 04:43:02;;;;;;;35.40;21.93;;;-2.20;1.00;;;;;;5097021;28;20491;-36
2023/02/09 04:45:28;;;;;;;32.13;21.57;;;-2.20;1.00;;;;;;5096897;28;20351;-36
2023/02/09 04:47:54;;;;;;;31.50;23.10;;;-2.20;1.00;;;;;;5097546;28;20483;-36
2023/02/09 04:50:19;;;;;;;33.97;22.97;;;-2.20;1.00;;;;;;5096131;28;20172;-36
2023/02/09 04:52:45;;;;;;;27.97;21.83;;;-2.10;1.00;;;;;;5097773;28;20176;-36
2023/02/09 04:55:10;;;;;;;29.50;21.77;;;-2.20;1.00;;;;;;5097603;28;20180;-36
2023/02/09 05:00:20;;;;;;;32.40;22.50;;;-2.20;1.00;;;;;;5098582;28;20183;-37
2023/02/09 05:02:46;;;;;;;35.17;20.90;;;-2.20;1.00;;;;;;5097905;28;20527;-37
2023/02/09 05:05:12;;;;;;;29.50;21.43;;;-2.20;1.00;;;;;;5098436;28;20220;-36
2023/02/09 05:07:37;;;;;;;29.67;21.43;;;-2.20;1.00;;;;;;5097431;28;20203;-37
2023/02/09 05:10:03;;;;;;;34.33;21.60;;;-2.30;1.00;;;;;;5096929;28;20551;-37
2023/02/09 05:12:29;;;;;;;31.67;21.97;;;-2.30;1.00;;;;;;5096512;28;20195;-36
2023/02/09 05:14:54;;;;;;;33.90;23.70;;;-2.30;1.00;;;;;;5095580;28;20418;-37
2023/02/09 05:17:20;;;;;;;34.43;22.47;;;-2.30;1.00;;;;;;5096103;28;20188;-36
2023/02/09 05:19:47;;;;;;;31.33;23.23;;;-2.30;1.00;;;;;;5095835;28;20181;-37
2023/02/09 05:22:13;;;;;;;33.10;24.10;;;-2.40;1.00;;;;;;5097997;28;20184;-37
2023/02/09 05:24:39;;;;;;;32.43;22.87;;;-2.40;1.00;;;;;;5095960;28;20502;-37
2023/02/09 05:27:04;;;;;;;33.37;23.70;;;-2.40;1.00;;;;;;5097722;28;20434;-36
2023/02/09 05:29:30;;;;;;;35.87;23.13;;;-2.40;1.00;;;;;;5097014;28;20553;-36
2023/02/09 05:31:55;;;;;;;35.80;24.40;;;-2.40;1.00;;;;;;5093551;28;20450;-37
2023/02/09 05:34:21;;;;;;;30.50;21.73;;;-2.40;1.00;;;;;;5095067;28;20192;-36
2023/02/09 05:36:47;;;;;;;30.63;22.70;;;-2.40;1.00;;;;;;5093958;28;20187;-36
2023/02/09 05:39:13;;;;;;;40.80;27.07;;;-2.40;1.00;;;;;;5094853;28;20177;-37
2023/02/09 05:44:23;;;;;;;51.27;31.03;;;-2.40;1.00;;;;;;5095191;28;20882;-39
2023/02/09 05:46:49;;;;;;;48.00;31.00;;;-2.40;1.00;;;;;;5095152;28;20521;-37
2023/02/09 05:49:14;;;;;;;47.67;29.67;;;-2.40;1.00;;;;;;5093297;28;20429;-35
2023/02/09 05:51:40;;;;;;;40.40;27.63;;;-2.40;1.00;;;;;;5092743;28;20180;-34
2023/02/09 05:54:06;;;;;;;39.80;28.87;;;-2.50;1.00;;;;;;5092755;28;20179;-35
2023/02/09 05:56:31;;;;;;;42.67;28.10;;;-2.50;1.00;;;;;;5092352;28;20176;-37
2023/02/09 05:58:57;;;;;;;40.60;27.03;;;-2.50;1.00;;;;;;5094353;28;20194;-35
2023/02/09 06:01:23;;;;;;;39.03;27.37;;;-2.50;1.00;;;;;;5092174;28;20207;-37
2023/02/09 06:03:48;;;;;;;40.00;28.50;;;-2.50;1.00;;;;;;5092442;28;20191;-37
2023/02/09 06:06:14;;;;;;;39.47;25.60;;;-2.50;1.00;;;;;;5094571;28;20169;-37
2023/02/09 06:08:39;;;;;;;40.67;27.20;;;-2.50;1.00;;;;;;5093570;28;20231;-37
2023/02/09 06:11:05;;;;;;;36.60;25.50;;;-2.50;1.00;;;;;;5090791;28;20172;-37
2023/02/09 06:13:34;;;;;;;38.43;25.77;;;-2.40;1.00;;;;;;5091646;28;20190;-36
2023/02/09 06:16:00;;;;;;;42.73;26.37;;;-2.40;1.00;;;;;;5092469;28;20535;-35
2023/02/09 06:18:25;;;;;;;39.23;26.93;;;-2.40;1.00;;;;;;5092349;28;20437;-36
2023/02/09 06:20:52;;;;;;;38.90;24.93;;;-2.40;1.00;;;;;;5092402;28;20266;-36
2023/02/09 06:23:18;;;;;;;40.67;25.73;;;-2.50;1.00;;;;;;5091268;28;20539;-36
2023/02/09 06:25:43;;;;;;;35.20;23.90;;;-2.50;1.00;;;;;;5091198;28;20532;-36
2023/02/09 06:28:09;;;;;;;32.57;23.57;;;-2.60;1.00;;;;;;5093342;28;20203;-36
2023/02/09 06:30:35;;;;;;;35.70;23.13;;;-2.60;1.00;;;;;;5091789;28;20689;-35
2023/02/09 06:33:00;;;;;;;35.47;25.20;;;-2.60;1.00;;;;;;5087296;28;20169;-36
2023/02/09 06:35:26;;;;;;;36.63;23.57;;;-2.60;1.00;;;;;;5085635;28;20436;-36
2023/02/09 06:37:56;;;;;;;35.27;24.63;;;-2.70;1.00;;;;;;5087266;28;20172;-36
2023/02/09 06:40:21;;;;;;;45.23;27.10;;;-2.70;1.00;;;;;;5089595;28;20181;-36
2023/02/09 06:42:47;;;;;;;39.40;24.73;;;-2.70;1.00;;;;;;5090471;28;20478;-36
2023/02/09 06:45:15;;;;;;;38.47;25.47;;;-2.70;1.00;;;;;;5090665;28;20436;-36
2023/02/09 06:47:41;;;;;;;39.03;25.37;;;-2.80;1.00;;;;;;5094492;28;20333;-36
2023/02/09 06:50:08;;;;;;;39.63;25.77;;;-2.80;1.00;;;;;;5093978;28;20426;-36
2023/02/09 06:52:34;;;;;;;39.97;25.23;;;-2.80;1.00;;;;;;5096305;28;20438;-36
2023/02/09 06:54:59;;;;;;;40.40;25.30;;;-2.80;1.00;;;;;;5096119;28;20771;-37
2023/02/09 06:57:25;;;;;;;36.10;26.73;;;-2.70;1.00;;;;;;5091187;28;20177;-36
2023/02/09 06:59:51;;;;;;;37.40;24.50;;;-2.70;1.00;;;;;;5097204;28;20199;-36
2023/02/09 07:02:17;;;;;;;38.97;25.27;;;-2.70;1.00;;;;;;5096538;28;20932;-36
2023/02/09 07:04:43;;;;;;;42.50;27.33;;;-2.60;1.00;;;;;;5094987;28;20432;-36
2023/02/09 07:07:08;;;;;;;39.20;25.20;;;-2.60;1.00;;;;;;5095083;28;20566;-36
2023/02/09 07:09:34;;;;;;;40.67;25.20;;;-2.50;1.00;;;;;;5095806;28;20200;-37
2023/02/09 07:11:59;;;;;;;34.27;24.97;;;-2.50;1.00;;;;;;5096026;28;20215;-36
2023/02/09 07:14:25;;;;;;;35.33;24.37;;;-2.40;1.00;;;;;;5094755;28;20277;-37
2023/02/09 07:16:51;;;;;;;36.97;25.40;;;-2.30;1.00;;;;;;5094662;28;20230;-36
2023/02/09 07:19:16;;;;;;;35.20;25.50;;;-2.20;1.00;;;;;;5095951;28;20164;-37
2023/02/09 07:21:42;;;;;;;37.00;26.20;;;-2.00;1.00;;;;;;5096325;28;20180;-36
2023/02/09 07:24:08;;;;;;;35.67;26.00;;;-1.90;1.00;;;;;;5094247;28;20329;-37
2023/02/09 07:26:33;;;;;;;40.93;27.77;;;-1.70;1.00;;;;;;5094190;28;20255;-36
2023/02/09 07:29:00;;;;;;;43.20;28.17;;;-1.50;1.00;;;;;;5095168;28;20361;-37
2023/02/09 07:31:26;;;;;;;41.07;27.73;;;-1.20;1.00;;;;;;5095494;28;20693;-39
2023/02/09 07:33:52;;;;;;;40.27;29.07;;;-1.00;1.00;;;;;;5096590;28;20418;-37
2023/02/09 07:36:18;;;;;;;38.33;27.47;;;-0.70;1.00;;;;;;5093859;28;20184;-37
2023/02/09 07:38:44;;;;;;;40.30;28.33;;;-0.50;1.00;;;;;;5095588;28;20426;-36
2023/02/09 07:41:24;;;;;;;37.37;28.70;;;-0.20;1.00;;;;;;5094731;28;20168;-37
2023/02/09 07:43:50;;;;;;;38.60;27.37;;;0.10;1.00;;;;;;5095271;28;20519;-37
2023/02/09 07:46:18;;;;;;;38.40;27.17;;;0.40;1.00;;;;;;5092425;28;20534;-36
2023/02/09 07:48:44;;;;;;;35.87;26.97;;;0.70;1.00;;;;;;5093322;28;20829;-37
2023/02/09 07:51:18;;;;;;;39.37;27.60;;;1.00;1.00;;;;;;5094354;28;20418;-36
2023/02/09 07:53:44;;;;;;;36.50;27.40;;;1.40;1.00;;;;;;5095459;28;20492;-37
2023/02/09 07:56:11;;;;;;;40.00;28.23;;;1.80;1.00;;;;;;5096151;28;20425;-37
2023/02/09 07:58:36;;;;;;;34.53;26.67;;;2.20;1.00;;;;;;5094721;28;20423;-37
2023/02/09 08:01:06;;;;;;;34.33;24.30;;;2.60;1.00;;;;;;5092523;28;20415;-37
2023/02/09 08:03:34;;;;;;;39.13;27.80;;;2.90;1.00;;;;;;5094244;28;20237;-37
2023/02/09 08:06:17;;;;;;;32.77;24.67;;;3.20;1.00;;;;;;5095172;28;20567;-37
2023/02/09 08:08:47;;;;;;;35.53;25.20;;;3.60;1.00;;;;;;5096187;28;20824;-37
2023/02/09 08:11:15;;;;;;;31.60;25.73;;;3.90;1.00;;;;;;5092374;28;20418;-35
2023/02/09 08:13:41;;;;;;;35.90;25.90;;;4.10;1.00;;;;;;5092038;28;20430;-36
2023/02/09 08:16:10;;;;;;;33.40;25.27;;;4.40;1.00;;;;;;5092437;28;20484;-37
2023/02/09 08:18:42;;;;;;;33.73;26.47;;;4.80;1.00;;;;;;5093114;28;20205;-36
2023/02/09 08:21:11;;;;;;;39.30;26.50;;;5.20;1.00;;;;;;5092123;28;20422;-36
2023/02/09 08:23:37;;;;;;;39.10;28.47;;;5.60;1.00;;;;;;5092749;28;20434;-36
2023/02/09 08:26:07;;;;;;;29.97;26.30;;;6.00;1.00;;;;;;5092944;28;20453;-36
2023/02/09 08:28:33;;;;;;;33.20;26.57;;;6.50;1.00;;;;;;5094002;28;20433;-37
2023/02/09 08:30:58;;;;;;;33.47;27.20;;;7.00;1.00;;;;;;5092585;28;20894;-36
2023/02/09 08:33:24;;;;;;;36.40;27.50;;;7.60;1.00;;;;;;5094740;28;20191;-36
2023/02/09 08:35:53;;;;;;;34.10;27.67;;;8.20;1.00;;;;;;5093372;28;20557;-36
2023/02/09 08:38:19;;;;;;;28.90;25.37;;;8.80;1.00;;;;;;5094461;28;20524;-37
2023/02/09 08:40:44;;;;;;;30.90;26.40;;;9.40;1.00;;;;;;5095200;28;20563;-37
2023/02/09 08:43:13;;;;;;;28.83;23.70;;;10.10;1.00;;;;;;5095781;28;20483;-40
2023/02/09 08:45:40;;;;;;;29.13;25.50;;;11.00;1.00;;;;;;5095014;28;20188;-37
2023/02/09 08:48:08;;;;;;;29.93;26.47;;;11.80;1.00;;;;;;5092185;28;20426;-37
2023/02/09 08:50:35;;;;;;;27.63;23.80;;;12.50;1.00;;;;;;5093039;28;20415;-42
2023/02/09 08:53:03;;;;;;;32.73;27.53;;;13.20;1.00;;;;;;5094427;28;20422;-38
2023/02/09 08:55:30;;;;;;;29.17;26.03;;;14.00;1.00;;;;;;5094009;28;20462;-38
2023/02/09 08:57:56;;;;;;;28.83;25.73;;;14.80;1.00;;;;;;5094079;28;20458;-39
2023/02/09 09:00:22;;;;;;;30.37;26.50;;;15.50;1.00;;;;;;5094657;28;20446;-38
2023/02/09 09:02:47;;;;;;;30.40;26.77;;;16.20;1.00;;;;;;5094900;28;20440;-38
2023/02/09 09:05:13;;;;;;;29.17;26.30;;;16.60;1.00;;;;;;5093582;28;20275;-42
2023/02/09 09:07:39;;;;;;;29.30;26.10;;;17.20;1.00;;;;;;5096124;28;20215;-38
2023/02/09 09:10:08;;;;;;;28.90;25.93;;;17.50;1.00;;;;;;5094473;28;20453;-37
2023/02/09 09:12:34;;;;;;;28.70;25.70;;;18.20;1.00;;;;;;5093883;28;20188;-38
2023/02/09 09:15:00;;;;;;;28.23;25.23;;;18.60;1.00;;;;;;5092118;28;20916;-38
2023/02/09 09:17:25;;;;;;;28.77;25.93;;;19.00;1.00;;;;;;5092941;28;20418;-38
2023/02/09 09:19:54;;;;;;;28.73;25.80;;;19.70;1.00;;;;;;5094270;28;20831;-39
2023/02/09 09:22:23;;;;;;;27.30;24.47;;;20.10;1.00;;;;;;5093674;28;20176;-38
2023/02/09 09:24:49;;;;;;;28.80;25.90;;;20.10;1.00;;;;;;5093324;28;20474;-38
2023/02/09 09:27:15;;;;;;;28.27;25.47;;;20.70;1.00;;;;;;5094264;28;20426;-36
2023/02/09 09:29:40;;;;;;;28.27;25.47;;;20.90;1.00;;;;;;5095084;28;20181;-37
2023/02/09 09:32:09;;;;;;;27.53;24.73;;;21.30;1.00;;;;;;5094439;28;20605;-39
2023/02/09 09:34:34;;;;;;;28.23;25.53;;;21.60;1.00;;;;;;5091640;28;20172;-37
2023/02/09 09:37:00;;;;;;;27.80;25.10;;;22.50;1.00;;;;;;5090646;28;20452;-37
2023/02/09 09:39:26;;;;;;;27.90;25.00;;;23.10;1.00;;;;;;5092637;28;20542;-36
2023/02/09 09:41:56;;;;;;;29.33;26.53;;;23.00;1.00;;;;;;5093202;28;20187;-38
2023/02/09 09:44:42;;;;;;;28.50;25.70;;;23.40;1.00;;;;;;5094654;28;20231;-37
2023/02/09 09:47:14;;;;;;;29.57;26.57;;;23.70;1.00;;;;;;5092531;28;20429;-37
2023/02/09 09:49:39;;;;;;;28.43;25.83;;;23.70;1.00;;;;;;5091628;28;20402;-36
2023/02/09 09:52:12;;;;;;;23.40;21.20;;;24.10;1.00;;;;;;5092050;28;20735;-38
2023/02/09 09:54:37;;;;;;;21.70;19.50;;;25.10;1.00;;;;;;5089494;28;20173;-39
2023/02/09 09:57:18;;;;;;;21.13;18.83;;;26.30;1.00;;;;;;5090747;28;20433;-38
2023/02/09 09:59:45;;;;;;;22.57;19.77;;;27.30;1.00;;;;;;5088568;28;20186;-38
2023/02/09 10:02:29;;;;;;;19.53;17.83;;;27.90;1.00;;;;;;5090755;28;20446;-40
2023/02/09 10:05:13;;;;;;;22.37;20.30;;;28.60;1.00;;;;;;5091410;28;20432;-39
2023/02/09 10:07:39;;;;;;;24.40;22.20;;;29.00;1.00;;;;;;5094340;28;20787;-41
2023/02/09 10:10:14;;;;;;;24.77;22.47;;;29.50;1.00;;;;;;5101976;28;20417;-39
2023/02/09 10:12:51;;;;;;;24.63;22.47;;;28.90;1.00;;;;;;5117228;28;20424;-39
2023/02/09 10:15:29;;;;;;;26.30;24.00;;;29.20;1.00;;;;;;5118058;28;20425;-39
2023/02/09 10:17:56;;;;;;;25.33;23.03;;;29.10;1.00;;;;;;5116661;28;20392;-38
2023/02/09 10:21:03;;;;;;;23.80;21.60;;;29.00;1.00;;;;;;5116916;28;20710;-40
2023/02/09 10:23:44;;;;;;;26.13;23.53;;;28.60;1.00;;;;;;5103211;28;20425;-39
2023/02/09 10:26:09;;;;;;;23.90;21.90;;;28.50;1.00;;;;;;5113346;28;20395;-39
2023/02/09 10:28:51;;;;;;;23.33;21.23;;;28.40;1.00;;;;;;5115298;28;20396;-41
2023/02/09 10:31:19;;;;;;;24.53;22.20;;;27.60;1.00;;;;;;5117303;28;20180;-39
2023/02/09 10:33:46;;;;;;;24.40;22.20;;;27.60;1.00;;;;;;5117212;28;20688;-39
2023/02/09 10:36:23;;;;;;;24.27;22.10;;;27.70;1.00;;;;;;5117154;28;20441;-39
2023/02/09 10:38:48;;;;;;;24.50;22.40;;;27.40;1.00;;;;;;5116459;28;20857;-37
2023/02/09 10:41:15;;;;;;;25.40;23.20;;;27.40;1.00;;;;;;5116695;28;20425;-41
2023/02/09 10:43:41;;;;;;;25.37;23.17;;;27.10;1.00;;;;;;5117738;28;20377;-39
2023/02/09 10:46:14;;;;;;;23.47;21.37;;;27.20;1.00;;;;;;5116358;28;20504;-39
2023/02/09 10:48:43;;;;;;;22.37;20.47;;;27.30;1.00;;;;;;5117839;28;20782;-39
2023/02/09 10:51:27;;;;;;;23.50;21.47;;;28.10;1.00;;;;;;5117352;28;20409;-38
2023/02/09 10:54:17;;;;;;;22.97;20.97;;;28.20;1.00;;;;;;5117596;28;20429;-39
2023/02/09 10:56:45;;;;;;;22.53;20.57;;;28.80;1.00;;;;;;5113800;28;20901;-37
2023/02/09 10:59:20;;;;;;;20.57;18.77;;;29.00;1.00;;;;;;5115916;28;20413;-37
2023/02/09 11:02:00;;;;;;;20.37;18.67;;;29.60;1.00;;;;;;5096591;28;20515;-39
2023/02/09 11:04:36;;;;;;;20.90;19.10;;;30.30;1.00;;;;;;5117222;28;20978;-39
2023/02/09 11:07:10;;;;;;;19.70;17.90;;;30.90;1.00;;;;;;5115901;28;20417;-39
2023/02/09 11:09:42;;;;;;;20.77;19.13;;;31.10;1.00;;;;;;5099010;28;20428;-39
2023/02/09 11:12:10;;;;;;;21.37;19.50;;;31.40;1.00;;;;;;5115534;28;20417;-41
2023/02/09 11:14:36;;;;;;;19.63;17.97;;;31.90;1.00;;;;;;5114416;28;20388;-42
2023/02/09 11:17:15;;;;;;;17.67;15.10;;;32.80;1.00;;;;;;5115921;28;20432;-39
2023/02/09 11:20:08;;;;;;;16.53;15.23;;;33.60;1.00;;;;;;5098029;28;20704;-40
2023/02/09 11:22:43;;;;;;;17.00;15.60;;;34.00;1.00;;;;;;5114144;28;20746;-42
2023/02/09 11:25:25;;;;;;;17.03;15.73;;;35.00;1.00;;;;;;5116423;28;20890;-41
2023/02/09 11:28:15;;;;;;;16.80;15.23;;;35.30;1.00;;;;;;5114829;28;20504;-44
2023/02/09 11:31:08;;;;;;;16.73;15.43;;;35.80;1.00;;;;;;5114994;28;20413;-40
2023/02/09 11:33:37;;;;;;;16.23;15.03;;;36.20;1.00;;;;;;5098249;28;20639;-41
2023/02/09 11:36:36;;;;;;;17.07;15.73;;;36.00;1.00;;;;;;5113303;28;20414;-41
2023/02/09 11:39:16;;;;;;;18.70;17.30;;;35.90;1.00;;;;;;5114075;28;20451;-41
2023/02/09 11:44:56;;;;;;;20.07;18.57;;;36.10;1.00;;;;;;5114468;28;20510;-41
2023/02/09 11:47:47;;;;;;;17.93;16.57;;;36.40;1.00;;;;;;5100922;28;20436;-39
2023/02/09 11:50:41;;;;;;;19.47;17.97;;;36.60;1.00;;;;;;5111040;28;20397;-40
2023/02/09 11:53:24;;;;;;;18.73;17.13;;;36.50;1.00;;;;;;5099990;28;20433;-43
2023/02/09 11:55:58;;;;;;;18.20;16.70;;;36.40;1.00;;;;;;5112201;28;20433;-42
2023/02/09 11:58:36;;;;;;;18.70;17.30;;;36.20;1.00;;;;;;5113135;28;20534;-43
2023/02/09 12:01:25;;;;;;;17.87;16.50;;;37.00;1.00;;;;;;5114359;28;20409;-40
2023/02/09 12:04:21;;;;;;;19.10;17.63;;;36.40;1.00;;;;;;5095861;28;20459;-43
2023/02/09 12:06:56;;;;;;;17.53;16.00;;;36.40;1.00;;;;;;5112910;28;20409;-43
2023/02/09 12:09:50;;;;;;;18.23;16.83;;;36.60;1.00;;;;;;5110997;28;20727;-40
2023/02/09 12:12:36;;;;;;;18.27;16.87;;;36.70;1.00;;;;;;5095540;28;20902;-41
2023/02/09 12:15:18;;;;;;;16.00;14.80;;;37.20;1.00;;;;;;5113805;28;20412;-40
2023/02/09 12:18:20;;;;;;;18.03;16.53;;;37.00;1.00;;;;;;5113673;28;20478;-44
2023/02/09 12:20:48;;;;;;;18.30;16.70;;;37.10;1.00;;;;;;5028634;28;20628;-43
2023/02/09 12:23:32;;;;;;;17.53;16.23;;;37.40;1.00;;;;;;5097587;28;20429;-43
2023/02/09 12:26:21;;;;;;;16.90;15.70;;;37.30;1.00;;;;;;5116026;28;20586;-40
2023/02/09 12:28:48;;;;;;;17.83;16.43;;;37.30;1.00;;;;;;5104070;28;20422;-40
2023/02/09 12:31:18;;;;;;;17.63;16.23;;;37.40;1.00;;;;;;5114549;28;20827;-43
2023/02/09 12:33:46;;;;;;;17.57;16.07;;;37.20;1.00;;;;;;5113611;28;20530;-41
2023/02/09 12:36:12;;;;;;;15.10;13.90;;;37.50;1.00;;;;;;5111259;28;20406;-39
2023/02/09 12:38:49;;;;;;;17.03;15.73;;;38.10;1.00;;;;;;5114049;28;20493;-42
2023/02/09 12:41:24;;;;;;;15.43;14.23;;;37.70;1.00;;;;;;5111243;28;20179;-40
2023/02/09 12:44:03;;;;;;;16.00;14.90;;;38.00;1.00;;;;;;5107439;28;20447;-44
2023/02/09 12:46:29;;;;;;;16.17;14.97;;;38.10;1.00;;;;;;5112795;28;20788;-42
2023/02/09 12:49:08;;;;;;;17.10;15.70;;;37.80;1.00;;;;;;5111455;28;20850;-41
2023/02/09 12:51:49;;;;;;;15.60;14.33;;;38.00;1.00;;;;;;5096828;28;20501;-41
2023/02/09 12:54:34;;;;;;;16.80;15.63;;;38.20;1.00;;;;;;5115944;28;20427;-41
2023/02/09 12:57:14;;;;;;;17.57;16.30;;;38.30;1.00;;;;;;5112663;28;20915;-42
2023/02/09 12:59:52;;;;;;;16.57;15.37;;;38.40;1.00;;;;;;5112849;27;20707;-42
2023/02/09 13:02:49;;;;;;;17.27;16.03;;;38.30;1.00;;;;;;5112017;28;20719;-40
2023/02/09 13:05:24;;;;;;;16.00;14.60;;;38.20;1.00;;;;;;5110042;28;20504;-41